Time;durP1;ratioP1;P1;durP2;ratioP2;P2;SDS_P1;SDS_P2;PMS_P1;PMS_P2;Temp;Humidity;BMP_temperature;BMP_pressure;BME280_temperature;BME280_humidity;BME280_pressure;Samples;Min_cycle;Max_cycle;Signal;HPM_P1;HPM_P2
2022/12/06 00:01:13;;;;;;;8.20;4.43;;;6.90;99.90;;;;;;5016930;28;20029;-87
2022/12/06 00:03:41;;;;;;;9.30;4.68;;;6.90;99.90;;;;;;5016689;28;20030;-86
2022/12/06 00:06:16;;;;;;;8.77;5.00;;;6.90;99.90;;;;;;5016598;28;20033;-87
2022/12/06 00:08:42;;;;;;;9.68;4.82;;;6.90;99.90;;;;;;5034074;28;20103;-87
2022/12/06 00:11:11;;;;;;;12.32;5.13;;;6.90;99.90;;;;;;4983755;28;20025;-85
2022/12/06 00:13:41;;;;;;;9.25;5.07;;;6.90;99.90;;;;;;5016348;28;20441;-86
2022/12/06 00:16:09;;;;;;;10.50;5.05;;;6.90;99.90;;;;;;5016203;28;20359;-85
2022/12/06 00:18:36;;;;;;;7.75;4.65;;;6.90;99.90;;;;;;5015865;28;20029;-85
2022/12/06 00:21:09;;;;;;;7.68;4.47;;;6.90;99.90;;;;;;5033559;28;20026;-85
2022/12/06 00:23:37;;;;;;;7.38;4.18;;;6.90;99.90;;;;;;5015989;28;20057;-85
2022/12/06 00:26:04;;;;;;;9.73;4.30;;;6.90;99.90;;;;;;5015824;28;20060;-85
2022/12/06 00:28:30;;;;;;;9.15;4.93;;;6.90;99.90;;;;;;4999878;28;20498;-87
2022/12/06 00:31:15;;;;;;;9.48;4.93;;;6.90;99.90;;;;;;4983831;28;20021;-87
2022/12/06 00:33:41;;;;;;;8.57;4.50;;;6.90;99.90;;;;;;5016240;28;20029;-86
2022/12/06 00:36:16;;;;;;;9.93;4.68;;;6.90;99.90;;;;;;4999943;28;20025;-87
2022/12/06 00:38:42;;;;;;;10.18;5.35;;;6.90;99.90;;;;;;5016003;28;20029;-86
2022/12/06 00:41:17;;;;;;;8.88;4.93;;;6.90;99.90;;;;;;5012708;28;20041;-86
2022/12/06 00:43:43;;;;;;;8.80;4.90;;;6.90;99.90;;;;;;5014429;28;20032;-90
2022/12/06 00:46:12;;;;;;;8.43;4.53;;;6.90;99.90;;;;;;4997184;28;20112;-90
2022/12/06 00:48:38;;;;;;;8.68;4.97;;;6.90;99.90;;;;;;5013380;28;20406;-90
2022/12/06 00:51:04;;;;;;;7.40;4.95;;;6.90;99.90;;;;;;5013859;28;20040;-90
2022/12/06 00:56:04;;;;;;;9.85;4.70;;;6.90;99.90;;;;;;4992678;28;20046;-85
2022/12/06 00:58:33;;;;;;;8.55;5.00;;;6.90;99.90;;;;;;4960664;28;20041;-86
2022/12/06 01:01:12;;;;;;;8.15;4.45;;;6.90;99.90;;;;;;5010694;28;20106;-88
2022/12/06 01:03:39;;;;;;;8.02;4.85;;;7.00;99.90;;;;;;4993774;28;20042;-89
2022/12/06 01:06:07;;;;;;;9.10;5.20;;;7.00;99.90;;;;;;4993627;28;20559;-89
2022/12/06 01:08:34;;;;;;;8.48;5.57;;;7.00;99.90;;;;;;4997320;28;20037;-89
2022/12/06 01:11:00;;;;;;;8.77;4.95;;;7.00;99.90;;;;;;4997300;28;20027;-89
2022/12/06 01:13:26;;;;;;;8.60;5.53;;;7.00;99.90;;;;;;4997609;28;20031;-89
2022/12/06 01:15:53;;;;;;;7.72;4.95;;;7.00;99.90;;;;;;4997422;28;20022;-89
2022/12/06 01:18:19;;;;;;;8.40;4.90;;;7.00;99.90;;;;;;5013784;28;20030;-89
2022/12/06 01:20:45;;;;;;;9.63;5.28;;;7.00;99.90;;;;;;4997342;28;20054;-89
2022/12/06 01:23:11;;;;;;;6.20;4.32;;;7.00;99.90;;;;;;4981287;28;20035;-89
2022/12/06 01:25:37;;;;;;;7.88;5.38;;;7.00;99.90;;;;;;4981061;28;20031;-89
2022/12/06 01:28:08;;;;;;;8.00;5.13;;;7.00;99.90;;;;;;4980974;28;20042;-89
2022/12/06 01:30:34;;;;;;;10.48;5.63;;;7.00;99.90;;;;;;4997032;28;20050;-88
2022/12/06 01:33:00;;;;;;;9.52;5.15;;;7.00;99.90;;;;;;4980703;28;20058;-89
2022/12/06 01:35:26;;;;;;;8.82;5.20;;;7.00;99.90;;;;;;5003600;28;20033;-88
2022/12/06 01:37:52;;;;;;;9.15;5.65;;;7.00;99.90;;;;;;5002848;28;20058;-88
2022/12/06 01:40:17;;;;;;;10.00;6.25;;;7.00;99.90;;;;;;4985842;28;20042;-88
2022/12/06 01:42:43;;;;;;;11.90;6.70;;;7.00;99.90;;;;;;4989029;28;20472;-88
2022/12/06 01:45:10;;;;;;;11.75;6.53;;;7.00;99.90;;;;;;4987919;28;20092;-88
2022/12/06 01:47:42;;;;;;;10.10;5.43;;;7.00;99.90;;;;;;4990326;28;20030;-89
2022/12/06 01:50:23;;;;;;;11.93;6.18;;;7.00;99.90;;;;;;5005139;28;20025;-88
2022/12/06 01:52:55;;;;;;;11.85;6.15;;;7.00;99.90;;;;;;5006831;28;20031;-88
2022/12/06 01:55:26;;;;;;;8.45;5.25;;;7.00;99.90;;;;;;5018641;28;20050;-88
2022/12/06 01:57:56;;;;;;;11.23;5.53;;;7.00;99.90;;;;;;5006508;28;20058;-88
2022/12/06 02:00:22;;;;;;;9.18;5.18;;;7.00;99.90;;;;;;5005546;28;20054;-88
2022/12/06 02:02:48;;;;;;;8.63;5.13;;;7.00;99.90;;;;;;5002198;28;20137;-88
2022/12/06 02:05:15;;;;;;;10.57;6.47;;;7.00;99.90;;;;;;5004389;28;20031;-87
2022/12/06 02:07:42;;;;;;;9.23;5.65;;;7.00;99.90;;;;;;4999575;28;20027;-86
2022/12/06 02:10:08;;;;;;;9.93;5.32;;;7.00;99.90;;;;;;4995899;28;20460;-86
2022/12/06 02:12:34;;;;;;;10.38;5.88;;;7.00;99.90;;;;;;4979741;28;20077;-86
2022/12/06 02:14:59;;;;;;;10.45;5.60;;;7.00;99.90;;;;;;4995686;28;20022;-86
2022/12/06 02:17:45;;;;;;;10.52;5.60;;;7.00;99.90;;;;;;4979354;28;20042;-86
2022/12/06 02:20:14;;;;;;;10.65;5.28;;;7.00;99.90;;;;;;5011917;28;20034;-86
2022/12/06 02:22:42;;;;;;;12.07;5.25;;;7.00;99.90;;;;;;4995917;28;20468;-86
2022/12/06 02:25:39;;;;;;;12.15;6.05;;;7.00;99.90;;;;;;4996190;28;20105;-85
2022/12/06 02:28:08;;;;;;;9.93;5.30;;;7.00;99.90;;;;;;4996567;28;20022;-85
2022/12/06 02:30:46;;;;;;;9.45;5.25;;;7.00;99.90;;;;;;4994781;28;20022;-85
2022/12/06 02:33:25;;;;;;;12.40;6.40;;;7.00;99.90;;;;;;4996334;28;20468;-85
2022/12/06 02:36:08;;;;;;;16.90;7.43;;;7.00;99.90;;;;;;4995996;28;20026;-85
2022/12/06 02:39:09;;;;;;;20.98;8.75;;;7.00;99.90;;;;;;4994631;28;20054;-85
2022/12/06 02:41:40;;;;;;;16.40;6.82;;;7.00;99.90;;;;;;4978522;28;20061;-85
2022/12/06 02:44:11;;;;;;;13.07;5.97;;;7.00;99.90;;;;;;4994618;28;20028;-85
2022/12/06 02:46:40;;;;;;;12.52;6.70;;;7.00;99.90;;;;;;5010953;28;20894;-84
2022/12/06 02:49:08;;;;;;;11.00;5.88;;;7.00;99.90;;;;;;4995726;28;20468;-85
2022/12/06 02:51:36;;;;;;;10.73;5.70;;;7.00;99.90;;;;;;4994413;28;20022;-85
2022/12/06 02:54:06;;;;;;;11.13;6.20;;;7.00;99.90;;;;;;4978239;28;20029;-84
2022/12/06 02:56:33;;;;;;;12.80;6.05;;;7.00;99.90;;;;;;4994357;28;20392;-86
2022/12/06 02:58:59;;;;;;;12.27;6.10;;;7.00;99.90;;;;;;4994716;28;20022;-86
2022/12/06 03:01:28;;;;;;;12.85;6.32;;;7.00;99.90;;;;;;5011294;28;20025;-86
2022/12/06 03:04:03;;;;;;;11.32;5.85;;;7.00;99.90;;;;;;4994720;28;20033;-86
2022/12/06 03:06:47;;;;;;;13.90;6.10;;;7.00;99.90;;;;;;4994677;28;20125;-86
2022/12/06 03:09:48;;;;;;;10.77;6.43;;;7.00;99.90;;;;;;4994258;28;20046;-86
2022/12/06 03:12:28;;;;;;;13.30;6.00;;;7.00;99.90;;;;;;4994412;28;20145;-86
2022/12/06 03:15:27;;;;;;;12.43;6.28;;;7.00;99.90;;;;;;4994328;28;20535;-86
2022/12/06 03:18:31;;;;;;;12.98;6.68;;;7.00;99.90;;;;;;4979615;28;20407;-86
2022/12/06 03:21:02;;;;;;;15.98;6.18;;;7.00;99.90;;;;;;4962269;28;20486;-86
2022/12/06 03:23:33;;;;;;;18.63;6.35;;;7.00;99.90;;;;;;4994189;28;20033;-86
2022/12/06 03:26:00;;;;;;;15.45;6.85;;;7.00;99.90;;;;;;4995840;28;20034;-86
2022/12/06 03:28:28;;;;;;;16.30;6.68;;;7.00;99.90;;;;;;4978741;28;20022;-86
2022/12/06 03:31:02;;;;;;;13.70;6.60;;;7.10;99.90;;;;;;4983575;28;20053;-88
2022/12/06 03:33:31;;;;;;;12.30;6.75;;;7.00;99.90;;;;;;5008833;28;20019;-88
2022/12/06 03:35:58;;;;;;;18.98;7.00;;;7.10;99.90;;;;;;5008146;28;20027;-88
2022/12/06 03:38:34;;;;;;;13.15;6.45;;;7.00;99.90;;;;;;4990488;28;20038;-88
2022/12/06 03:41:03;;;;;;;17.40;6.90;;;7.00;99.90;;;;;;5007087;28;20023;-88
2022/12/06 03:43:29;;;;;;;14.18;7.25;;;7.00;99.90;;;;;;5010062;28;20056;-88
2022/12/06 03:46:07;;;;;;;12.68;6.10;;;7.00;99.90;;;;;;4993885;28;20034;-88
2022/12/06 03:48:47;;;;;;;18.98;7.50;;;7.00;99.90;;;;;;5009666;28;20090;-89
2022/12/06 03:51:19;;;;;;;18.33;7.32;;;7.00;99.90;;;;;;5008145;28;20030;-88
2022/12/06 03:53:50;;;;;;;17.27;7.13;;;7.00;99.90;;;;;;5007751;28;20053;-88
2022/12/06 03:56:19;;;;;;;13.10;6.20;;;7.00;99.90;;;;;;5020648;28;20082;-88
2022/12/06 03:58:55;;;;;;;14.02;6.22;;;7.00;99.90;;;;;;5009783;28;20030;-89
2022/12/06 04:01:20;;;;;;;17.80;7.00;;;7.00;99.90;;;;;;4991839;28;20031;-88
2022/12/06 04:03:46;;;;;;;15.95;6.80;;;7.00;99.90;;;;;;4988161;28;20069;-85
2022/12/06 04:06:12;;;;;;;15.60;6.20;;;7.00;99.90;;;;;;4993083;28;20502;-85
2022/12/06 04:08:38;;;;;;;12.45;6.00;;;7.00;99.90;;;;;;4976834;28;20226;-85
2022/12/06 04:11:04;;;;;;;19.35;6.65;;;7.00;99.90;;;;;;4977116;28;20058;-85
2022/12/06 04:13:31;;;;;;;22.52;8.85;;;6.90;99.90;;;;;;4992950;28;20022;-85
2022/12/06 04:15:59;;;;;;;17.48;6.68;;;6.90;99.90;;;;;;4993047;28;20019;-84
2022/12/06 04:18:25;;;;;;;14.35;6.45;;;6.90;99.90;;;;;;4993062;28;20030;-86
2022/12/06 04:23:38;;;;;;;13.88;6.75;;;6.90;99.90;;;;;;4995400;28;20041;-88
2022/12/06 04:26:05;;;;;;;13.23;6.55;;;6.90;99.90;;;;;;4993958;28;20065;-88
2022/12/06 04:39:30;;;;;;;11.93;6.38;;;6.80;99.90;;;;;;4993844;28;20036;-85
2022/12/06 04:44:40;;;;;;;15.73;6.93;;;6.80;99.90;;;;;;4998417;28;20046;-86
2022/12/06 04:47:06;;;;;;;12.57;6.28;;;6.80;99.90;;;;;;5012973;28;20038;-85
2022/12/06 04:49:32;;;;;;;14.13;6.35;;;6.80;99.90;;;;;;4998019;28;20022;-86
2022/12/06 04:51:58;;;;;;;15.45;6.05;;;6.80;99.90;;;;;;4997959;28;20026;-85
2022/12/06 04:54:25;;;;;;;13.73;6.25;;;6.80;99.90;;;;;;5012922;28;20081;-85
2022/12/06 04:56:51;;;;;;;12.43;5.85;;;6.80;99.90;;;;;;5012832;28;20089;-85
2022/12/06 04:59:18;;;;;;;14.55;6.78;;;6.80;99.90;;;;;;4980433;28;20034;-85
2022/12/06 05:01:44;;;;;;;15.15;6.20;;;6.80;99.90;;;;;;4980442;28;20038;-85
2022/12/06 05:04:10;;;;;;;13.35;6.28;;;6.80;99.90;;;;;;5012713;28;20041;-85
2022/12/06 05:06:36;;;;;;;14.45;6.13;;;6.80;99.90;;;;;;4980071;28;20037;-85
2022/12/06 05:09:02;;;;;;;11.93;6.22;;;6.80;99.90;;;;;;5012690;28;20472;-86
2022/12/06 05:11:31;;;;;;;14.05;6.05;;;6.80;99.90;;;;;;5009078;28;20110;-89
2022/12/06 05:13:59;;;;;;;14.07;6.53;;;6.80;99.90;;;;;;5014323;28;20023;-90
2022/12/06 05:16:25;;;;;;;10.88;5.88;;;6.80;99.90;;;;;;5008837;28;20082;-89
2022/12/06 05:18:50;;;;;;;13.40;6.00;;;6.80;99.90;;;;;;4985832;28;20065;-89
2022/12/06 05:21:19;;;;;;;15.00;5.53;;;6.80;99.90;;;;;;5018752;28;20026;-89
2022/12/06 05:23:46;;;;;;;13.20;6.10;;;6.80;99.90;;;;;;5003262;28;20073;-89
2022/12/06 05:26:15;;;;;;;11.43;4.88;;;6.80;99.90;;;;;;5008356;28;20041;-89
2022/12/06 05:28:42;;;;;;;11.65;6.10;;;6.80;99.90;;;;;;4997474;28;20390;-89
2022/12/06 05:31:08;;;;;;;12.88;5.40;;;6.80;99.90;;;;;;4980891;28;20037;-89
2022/12/06 05:33:34;;;;;;;12.63;5.07;;;6.80;99.90;;;;;;4997283;28;20479;-89
2022/12/06 05:36:08;;;;;;;11.05;5.88;;;6.80;99.90;;;;;;5013309;28;20104;-89
2022/12/06 05:38:34;;;;;;;12.65;5.25;;;6.80;99.90;;;;;;4997350;28;20188;-90
2022/12/06 05:41:00;;;;;;;13.52;5.18;;;6.80;99.90;;;;;;4981100;28;20050;-89
2022/12/06 05:43:28;;;;;;;14.30;5.45;;;6.80;99.90;;;;;;4997962;28;20483;-89
2022/12/06 05:45:54;;;;;;;12.70;5.22;;;6.80;99.90;;;;;;4986940;28;20073;-89
2022/12/06 05:48:21;;;;;;;10.43;5.20;;;6.80;99.90;;;;;;4989764;28;20037;-89
2022/12/06 05:50:47;;;;;;;12.02;5.18;;;6.80;99.90;;;;;;5021471;28;20391;-89
2022/12/06 05:53:16;;;;;;;12.93;5.88;;;6.80;99.90;;;;;;5002785;28;20042;-89
2022/12/06 05:55:42;;;;;;;10.13;5.22;;;6.80;99.90;;;;;;4993977;28;20042;-88
2022/12/06 05:58:42;;;;;;;12.65;5.70;;;6.80;99.90;;;;;;4990060;28;20034;-90
2022/12/06 06:01:08;;;;;;;11.70;5.18;;;6.80;99.90;;;;;;4980498;28;20487;-89
2022/12/06 06:03:35;;;;;;;11.43;5.18;;;6.70;99.90;;;;;;4996190;28;20050;-89
2022/12/06 06:06:01;;;;;;;11.70;5.30;;;6.70;99.90;;;;;;4997447;28;20471;-89
2022/12/06 06:08:27;;;;;;;12.68;5.38;;;6.70;99.90;;;;;;4997616;28;20033;-88
2022/12/06 06:10:53;;;;;;;13.05;5.53;;;6.70;99.90;;;;;;4988439;28;20026;-88
2022/12/06 06:13:19;;;;;;;13.32;5.57;;;6.70;99.90;;;;;;4981229;28;20498;-89
2022/12/06 06:15:46;;;;;;;10.85;5.55;;;6.70;99.90;;;;;;4982587;28;20061;-89
2022/12/06 06:18:15;;;;;;;11.90;5.80;;;6.70;99.90;;;;;;4999140;28;20035;-89
2022/12/06 06:20:41;;;;;;;10.63;5.43;;;6.70;99.90;;;;;;4982396;28;20034;-89
2022/12/06 06:23:06;;;;;;;15.05;5.38;;;6.70;99.90;;;;;;4966298;28;20027;-89
2022/12/06 06:25:32;;;;;;;15.00;5.45;;;6.70;99.90;;;;;;4997538;28;20066;-89
2022/12/06 06:27:58;;;;;;;16.23;5.40;;;6.70;99.90;;;;;;4998336;28;20018;-89
2022/12/06 06:34:04;;;;;;;14.55;5.63;;;6.70;99.90;;;;;;5001504;28;20029;-88
2022/12/06 06:36:30;;;;;;;12.57;5.28;;;6.70;99.90;;;;;;4988459;28;20027;-88
2022/12/06 06:38:57;;;;;;;10.00;5.78;;;6.60;99.90;;;;;;4990293;28;20045;-88
2022/12/06 06:41:24;;;;;;;15.35;6.10;;;6.60;99.90;;;;;;4991669;28;20030;-88
2022/12/06 06:43:49;;;;;;;13.05;6.03;;;6.60;99.90;;;;;;5006080;28;20081;-88
2022/12/06 06:46:15;;;;;;;13.07;6.03;;;6.60;99.90;;;;;;5007222;28;20423;-88
2022/12/06 06:48:44;;;;;;;13.25;6.07;;;6.60;99.90;;;;;;5008470;28;20030;-89
2022/12/06 06:51:11;;;;;;;14.38;5.93;;;6.60;99.90;;;;;;5000781;28;20026;-86
2022/12/06 06:53:38;;;;;;;11.60;5.65;;;6.60;99.90;;;;;;4994696;28;20022;-86
2022/12/06 06:56:04;;;;;;;15.25;6.57;;;6.60;99.90;;;;;;4978353;28;20049;-86
2022/12/06 06:58:30;;;;;;;10.77;5.47;;;6.60;99.90;;;;;;4978433;28;20034;-86
2022/12/06 07:00:58;;;;;;;11.77;6.82;;;6.60;99.90;;;;;;4978376;28;20085;-86
2022/12/06 07:03:25;;;;;;;13.55;5.60;;;6.60;99.90;;;;;;4994511;28;20036;-86
2022/12/06 07:06:06;;;;;;;13.68;5.45;;;6.60;99.90;;;;;;4994381;28;20034;-86
2022/12/06 07:08:32;;;;;;;13.23;5.85;;;6.60;99.90;;;;;;5004390;28;20034;-88
2022/12/06 07:10:59;;;;;;;14.50;5.28;;;6.60;99.90;;;;;;4988563;28;20058;-88
2022/12/06 07:13:26;;;;;;;15.07;6.32;;;6.60;99.90;;;;;;4987793;28;20117;-88
2022/12/06 07:15:52;;;;;;;10.18;5.30;;;6.60;99.90;;;;;;5004436;28;20018;-89
2022/12/06 07:18:19;;;;;;;12.80;5.45;;;6.60;99.90;;;;;;5006500;28;20042;-89
2022/12/06 07:20:46;;;;;;;12.52;5.47;;;6.60;99.90;;;;;;5007475;28;20018;-88
2022/12/06 07:23:14;;;;;;;11.10;5.72;;;6.60;99.90;;;;;;5007268;28;20030;-89
2022/12/06 07:25:39;;;;;;;11.85;5.20;;;6.60;99.90;;;;;;5023342;23;20045;-85
2022/12/06 07:28:05;;;;;;;10.85;5.35;;;6.60;99.90;;;;;;5016515;28;20508;-84
2022/12/06 07:30:32;;;;;;;11.15;5.18;;;6.60;99.90;;;;;;5032961;28;20025;-85
2022/12/06 07:32:58;;;;;;;12.25;5.07;;;6.60;99.90;;;;;;5017121;28;20051;-84
2022/12/06 07:35:24;;;;;;;8.90;4.82;;;6.60;99.90;;;;;;5033308;28;20455;-86
2022/12/06 07:37:50;;;;;;;13.75;5.15;;;6.60;99.90;;;;;;5016479;28;20149;-86
2022/12/06 07:40:17;;;;;;;15.27;5.50;;;6.60;99.90;;;;;;5016589;28;20079;-86
2022/12/06 07:45:27;;;;;;;10.95;4.40;;;6.60;99.90;;;;;;5034445;28;20032;-85
2022/12/06 07:47:53;;;;;;;13.07;4.93;;;6.60;99.90;;;;;;5032892;28;20029;-86
2022/12/06 07:50:21;;;;;;;11.93;4.55;;;6.60;99.90;;;;;;5032412;28;20352;-86
2022/12/06 07:52:49;;;;;;;11.95;4.43;;;6.60;99.90;;;;;;5032800;28;20021;-86
2022/12/06 07:55:15;;;;;;;9.02;4.57;;;6.60;99.90;;;;;;5033243;28;20098;-86
2022/12/06 07:57:41;;;;;;;10.32;4.55;;;6.60;99.90;;;;;;5033981;28;20029;-87
2022/12/06 08:00:09;;;;;;;10.60;4.68;;;6.60;99.90;;;;;;5019710;28;20091;-87
2022/12/06 08:02:35;;;;;;;8.70;4.18;;;6.60;99.90;;;;;;5031389;28;20037;-87
2022/12/06 08:05:01;;;;;;;8.20;4.20;;;6.60;99.90;;;;;;5019511;28;20034;-87
2022/12/06 08:07:26;;;;;;;10.50;4.45;;;6.60;99.90;;;;;;5025813;28;20471;-87
2022/12/06 08:09:52;;;;;;;9.02;4.30;;;6.60;99.90;;;;;;5015131;28;20051;-87
2022/12/06 08:12:20;;;;;;;6.70;3.85;;;6.60;99.90;;;;;;5028081;28;20060;-88
2022/12/06 08:14:46;;;;;;;10.73;4.10;;;6.60;99.90;;;;;;5007299;28;20033;-86
2022/12/06 08:17:12;;;;;;;11.57;4.20;;;6.60;99.90;;;;;;5016884;28;20336;-86
2022/12/06 08:19:37;;;;;;;10.40;4.10;;;6.60;99.90;;;;;;5023346;28;20045;-86
2022/12/06 08:22:03;;;;;;;7.57;3.85;;;6.60;99.90;;;;;;5026651;28;20030;-87
2022/12/06 08:24:29;;;;;;;7.15;3.72;;;6.60;99.90;;;;;;4999500;28;20410;-86
2022/12/06 08:26:55;;;;;;;9.60;3.90;;;6.60;99.90;;;;;;5022001;28;20542;-86
2022/12/06 08:29:21;;;;;;;8.38;3.50;;;6.60;99.90;;;;;;5019899;28;20437;-86
2022/12/06 08:31:47;;;;;;;8.88;4.00;;;6.60;99.90;;;;;;4997484;28;20377;-94
2022/12/06 08:34:14;;;;;;;7.93;3.65;;;6.60;99.90;;;;;;4997531;28;20042;-93
2022/12/06 08:36:40;;;;;;;11.02;4.38;;;6.60;99.90;;;;;;4997834;28;20026;-93
2022/12/06 08:39:08;;;;;;;7.90;3.83;;;6.70;99.90;;;;;;5013964;28;20399;-93
2022/12/06 08:41:56;;;;;;;8.20;4.03;;;6.60;99.90;;;;;;4997730;28;20022;-93
2022/12/06 08:44:23;;;;;;;10.02;4.38;;;6.70;99.90;;;;;;5000503;28;20052;-94
2022/12/06 08:46:49;;;;;;;8.57;4.20;;;6.70;99.90;;;;;;4998856;28;20030;-88
2022/12/06 08:49:16;;;;;;;8.43;3.58;;;6.60;99.90;;;;;;5016710;28;20034;-88
2022/12/06 08:51:42;;;;;;;11.23;4.07;;;6.60;99.90;;;;;;5008514;28;20026;-88
2022/12/06 08:54:12;;;;;;;8.77;3.70;;;6.60;99.90;;;;;;5005145;28;20022;-88
2022/12/06 08:56:38;;;;;;;8.25;3.78;;;6.60;99.90;;;;;;5006417;28;20029;-89
2022/12/06 08:59:03;;;;;;;9.07;4.93;;;6.60;99.90;;;;;;5012404;28;20041;-89
2022/12/06 09:01:31;;;;;;;8.02;4.30;;;6.60;99.90;;;;;;4992512;28;20029;-88
2022/12/06 09:04:01;;;;;;;8.95;3.78;;;6.50;99.90;;;;;;5030692;28;20030;-94
2022/12/06 09:06:29;;;;;;;7.78;3.50;;;6.50;99.90;;;;;;4997731;28;20040;-94
2022/12/06 09:08:55;;;;;;;8.27;3.60;;;6.60;99.90;;;;;;4997193;28;20030;-94
2022/12/06 09:11:21;;;;;;;9.48;3.75;;;6.50;99.90;;;;;;5027329;28;20033;-94
2022/12/06 09:13:46;;;;;;;7.53;3.63;;;6.50;99.90;;;;;;5008375;28;20022;-94
2022/12/06 09:16:19;;;;;;;7.32;3.55;;;6.50;99.90;;;;;;5005763;28;20037;-94
2022/12/06 09:18:45;;;;;;;10.05;4.55;;;6.60;99.90;;;;;;5013925;28;20364;-94
2022/12/06 09:21:21;;;;;;;8.05;4.20;;;6.60;99.90;;;;;;5006226;28;20029;-86
2022/12/06 09:23:47;;;;;;;9.18;3.95;;;6.60;99.90;;;;;;5023269;28;20029;-86
2022/12/06 09:26:13;;;;;;;11.75;4.70;;;6.60;99.90;;;;;;4999402;28;20351;-87
2022/12/06 09:28:40;;;;;;;11.20;4.05;;;6.60;99.90;;;;;;5021518;28;20089;-86
2022/12/06 09:31:08;;;;;;;8.45;4.20;;;6.60;99.90;;;;;;5026217;28;20322;-87
2022/12/06 09:33:34;;;;;;;8.68;4.55;;;6.70;99.90;;;;;;5006400;28;20071;-87
2022/12/06 09:36:05;;;;;;;13.60;4.78;;;6.70;99.90;;;;;;5020219;28;20025;-87
2022/12/06 09:38:47;;;;;;;7.47;4.10;;;6.70;99.90;;;;;;5049252;28;20036;-94
2022/12/06 09:41:45;;;;;;;10.25;4.70;;;6.80;99.90;;;;;;5050921;28;20049;-93
2022/12/06 09:44:37;;;;;;;7.20;3.70;;;6.80;99.90;;;;;;5047098;28;20029;-93
2022/12/06 09:47:12;;;;;;;10.52;4.65;;;6.80;99.90;;;;;;5046381;28;20034;-93
2022/12/06 09:50:33;;;;;;;12.38;4.40;;;6.80;99.90;;;;;;5057963;28;20056;-94
2022/12/06 09:53:10;;;;;;;8.35;3.72;;;6.90;99.90;;;;;;4975460;29;20497;-93
2022/12/06 09:56:03;;;;;;;15.45;4.00;;;6.90;99.90;;;;;;5012164;28;20469;-85
2022/12/06 09:58:32;;;;;;;8.63;3.60;;;6.90;99.90;;;;;;5022394;28;20025;-85
2022/12/06 10:01:05;;;;;;;8.38;3.53;;;7.00;99.90;;;;;;5031552;28;20025;-88
2022/12/06 10:03:41;;;;;;;9.13;4.45;;;7.00;99.90;;;;;;5034431;28;20021;-88
2022/12/06 10:06:16;;;;;;;12.20;3.60;;;7.00;99.90;;;;;;5033841;28;20121;-88
2022/12/06 10:09:20;;;;;;;8.02;3.42;;;7.10;99.90;;;;;;5033170;28;20099;-88
2022/12/06 10:11:55;;;;;;;5.05;3.40;;;7.10;99.90;;;;;;5022473;28;20076;-88
2022/12/06 10:14:58;;;;;;;5.80;3.33;;;7.20;99.90;;;;;;5023202;28;20025;-88
2022/12/06 10:17:32;;;;;;;8.50;3.58;;;7.20;99.90;;;;;;5033567;28;20041;-87
2022/12/06 10:20:17;;;;;;;7.68;3.47;;;7.20;99.90;;;;;;5023796;28;20026;-87
2022/12/06 10:23:04;;;;;;;7.18;3.40;;;7.30;99.90;;;;;;5020762;28;20026;-87
2022/12/06 10:25:41;;;;;;;7.07;3.03;;;7.30;99.90;;;;;;5031699;28;20105;-87
2022/12/06 10:28:14;;;;;;;11.52;3.58;;;7.30;99.90;;;;;;5024363;28;20112;-85
2022/12/06 10:30:55;;;;;;;6.13;2.90;;;7.40;99.90;;;;;;5027409;28;20116;-85
2022/12/06 10:33:20;;;;;;;;;;;7.40;99.90;;;;;;5020229;28;20113;-85
2022/12/06 10:35:54;;;;;;;7.63;2.80;;;7.40;99.90;;;;;;5023995;28;19952;-84
2022/12/06 10:38:26;;;;;;;8.73;2.90;;;7.40;99.90;;;;;;5027883;28;20057;-85
2022/12/06 10:41:13;;;;;;;5.40;2.80;;;7.50;99.90;;;;;;5013370;28;20026;-84
2022/12/06 10:43:57;;;;;;;5.25;2.40;;;7.50;99.90;;;;;;5028284;28;20033;-93
2022/12/06 10:47:02;;;;;;;5.32;2.47;;;7.50;99.90;;;;;;5030887;28;20056;-92
2022/12/06 10:49:38;;;;;;;7.13;2.70;;;7.50;99.90;;;;;;5019496;28;20117;-93
2022/12/06 10:52:13;;;;;;;10.55;2.90;;;7.50;99.90;;;;;;5019436;28;20029;-93
2022/12/06 10:55:06;;;;;;;5.40;2.53;;;7.50;99.90;;;;;;5023127;28;20068;-93
2022/12/06 10:57:45;;;;;;;5.88;2.85;;;7.50;99.90;;;;;;5029821;28;20026;-94
2022/12/06 11:00:20;;;;;;;7.28;2.97;;;7.60;99.90;;;;;;5033948;28;20025;-93
2022/12/06 11:03:11;;;;;;;6.55;2.90;;;7.50;99.90;;;;;;5050072;28;20049;-94
2022/12/06 11:05:43;;;;;;;7.15;2.72;;;7.60;99.90;;;;;;5053257;28;20029;-93
2022/12/06 11:08:27;;;;;;;7.07;2.90;;;7.60;99.90;;;;;;5056606;28;20025;-93
2022/12/06 11:10:55;;;;;;;6.90;3.20;;;7.60;99.90;;;;;;5046928;28;20032;-93
2022/12/06 11:13:38;;;;;;;9.43;3.22;;;7.70;99.90;;;;;;5037053;28;20018;-93
2022/12/06 11:16:22;;;;;;;8.23;3.10;;;7.70;99.90;;;;;;5024515;28;20160;-93
2022/12/06 11:18:48;;;;;;;7.47;3.03;;;7.80;99.90;;;;;;5013107;28;20092;-94
2022/12/06 11:21:40;;;;;;;7.22;3.22;;;7.90;99.90;;;;;;5011105;28;20112;-93
2022/12/06 11:24:27;;;;;;;8.13;3.00;;;8.00;99.90;;;;;;5026992;28;20028;-85
2022/12/06 11:27:20;;;;;;;8.13;3.05;;;8.10;99.90;;;;;;5018704;28;20033;-85
2022/12/06 11:29:48;;;;;;;7.63;3.50;;;8.20;99.90;;;;;;5045809;28;20500;-88
2022/12/06 11:32:16;;;;;;;10.93;3.30;;;8.30;99.90;;;;;;5033199;28;20021;-88
2022/12/06 11:34:50;;;;;;;9.88;4.95;;;8.30;99.90;;;;;;5046738;28;20075;-88
2022/12/06 11:37:21;;;;;;;10.88;3.63;;;8.40;99.90;;;;;;5044677;28;20029;-93
2022/12/06 11:39:50;;;;;;;7.75;3.50;;;8.50;99.90;;;;;;5025954;28;20161;-91
2022/12/06 11:42:22;;;;;;;7.68;2.90;;;8.60;99.90;;;;;;5028936;28;20112;-92
2022/12/06 11:44:58;;;;;;;6.63;2.80;;;8.60;99.90;;;;;;5033088;28;20543;-92
2022/12/06 11:47:24;;;;;;;7.80;2.80;;;8.70;99.90;;;;;;5030352;28;20029;-93
2022/12/06 11:49:53;;;;;;;7.72;3.17;;;8.70;99.90;;;;;;4996724;28;20116;-93
2022/12/06 11:52:32;;;;;;;5.97;2.85;;;8.70;99.90;;;;;;5039553;28;20049;-93
2022/12/06 11:55:06;;;;;;;5.57;2.80;;;8.70;99.90;;;;;;5028859;28;20021;-93
2022/12/06 11:57:43;;;;;;;8.40;2.85;;;8.70;99.90;;;;;;5047179;28;20116;-92
2022/12/06 12:00:15;;;;;;;8.45;2.85;;;8.70;99.90;;;;;;5028528;28;20545;-92
2022/12/06 12:02:44;;;;;;;6.85;2.67;;;8.70;99.90;;;;;;5027352;28;20032;-93
2022/12/06 12:05:37;;;;;;;8.00;3.30;;;8.70;99.90;;;;;;5030168;28;20025;-92
2022/12/06 12:08:18;;;;;;;6.80;2.78;;;8.70;99.90;;;;;;5034093;28;20029;-87
2022/12/06 12:10:45;;;;;;;5.07;2.80;;;8.70;99.90;;;;;;5019498;28;20032;-86
2022/12/06 12:15:59;;;;;;;6.55;2.42;;;8.70;99.90;;;;;;5044811;28;20040;-87
2022/12/06 12:18:29;;;;;;;4.68;2.40;;;8.70;99.90;;;;;;5021135;28;20367;-86
2022/12/06 12:20:57;;;;;;;8.52;2.72;;;8.80;99.90;;;;;;5045543;28;20075;-86
2022/12/06 12:23:28;;;;;;;7.97;2.80;;;8.80;99.90;;;;;;5026312;28;20028;-86
2022/12/06 12:26:01;;;;;;;4.18;2.33;;;8.80;99.90;;;;;;5030288;28;20135;-93
2022/12/06 12:28:32;;;;;;;7.45;2.80;;;8.80;99.90;;;;;;5029529;28;20032;-92
2022/12/06 12:31:07;;;;;;;6.35;2.80;;;8.80;99.90;;;;;;5014649;28;20034;-92
2022/12/06 12:33:32;;;;;;;6.15;2.78;;;8.80;99.90;;;;;;5007794;28;20054;-92
2022/12/06 12:36:01;;;;;;;5.35;2.25;;;8.90;99.90;;;;;;5006953;28;20022;-92
2022/12/06 12:38:53;;;;;;;6.30;2.70;;;8.90;99.90;;;;;;5024360;28;20029;-92
2022/12/06 12:41:25;;;;;;;6.10;2.65;;;9.00;99.90;;;;;;5038027;28;20037;-88
2022/12/06 12:43:58;;;;;;;4.40;2.30;;;9.00;99.90;;;;;;5020599;28;20120;-88
2022/12/06 12:46:24;;;;;;;7.05;2.90;;;9.00;99.90;;;;;;5027919;28;20024;-88
2022/12/06 12:48:50;;;;;;;5.47;3.10;;;9.00;99.90;;;;;;5003644;28;20547;-88
2022/12/06 12:51:26;;;;;;;5.82;2.80;;;9.00;99.90;;;;;;4999848;28;20483;-87
2022/12/06 12:54:01;;;;;;;7.57;2.72;;;9.10;99.90;;;;;;5022828;28;20073;-87
2022/12/06 12:56:35;;;;;;;5.75;2.72;;;9.00;99.90;;;;;;5026007;28;20092;-85
2022/12/06 12:59:11;;;;;;;7.47;2.70;;;9.00;99.90;;;;;;5020908;28;20043;-84
2022/12/06 13:01:40;;;;;;;7.88;2.72;;;9.10;99.90;;;;;;5015328;28;20095;-85
2022/12/06 13:04:21;;;;;;;6.68;2.70;;;9.10;99.90;;;;;;5019110;28;20535;-84
2022/12/06 13:06:53;;;;;;;9.20;2.75;;;9.10;99.90;;;;;;5024238;28;20056;-84
2022/12/06 13:09:23;;;;;;;6.50;2.33;;;9.10;99.90;;;;;;5026066;28;20471;-85
2022/12/06 13:11:55;;;;;;;5.57;2.35;;;9.10;99.90;;;;;;5027803;28;20071;-84
2022/12/06 13:14:23;;;;;;;6.63;2.42;;;9.10;99.90;;;;;;5025014;28;20077;-87
2022/12/06 13:16:52;;;;;;;8.10;3.30;;;9.10;99.90;;;;;;5016560;28;20029;-87
2022/12/06 13:19:20;;;;;;;8.10;3.60;;;9.10;99.90;;;;;;5027656;28;20021;-87
2022/12/06 13:21:47;;;;;;;5.13;2.40;;;9.10;99.90;;;;;;5035266;28;20024;-88
2022/12/06 13:24:21;;;;;;;5.65;2.50;;;9.10;99.90;;;;;;5017912;28;20026;-87
2022/12/06 13:26:56;;;;;;;6.63;3.00;;;9.10;99.90;;;;;;5036858;28;20024;-88
2022/12/06 13:29:54;;;;;;;10.93;3.28;;;9.10;99.90;;;;;;5051354;28;20063;-88
2022/12/06 13:32:30;;;;;;;7.60;3.47;;;9.10;99.90;;;;;;5024187;28;20463;-86
2022/12/06 13:35:01;;;;;;;6.40;2.90;;;9.10;99.90;;;;;;5033218;28;20017;-87
2022/12/06 13:37:43;;;;;;;6.40;2.80;;;9.10;99.90;;;;;;5035347;28;20025;-92
2022/12/06 13:40:31;;;;;;;5.45;2.97;;;9.00;99.90;;;;;;5029925;28;20029;-92
2022/12/06 13:42:58;;;;;;;7.03;2.80;;;9.00;99.90;;;;;;5047985;28;21079;-93